Reno (UNR), Valley Road, Nevada Weather observations

Data are for observation ending at time listed.
 Day   Time    Ave.   Ave.  Ave.  Vector   Max.    Total    Solar   Rl      Baro.   Ave.  
  of    of     Air    Rel.  Wind   Wind    Wind   Precip.   Rad.    in      Pres.   Soil  
Year   Day     Temp.  Hum.  Speed  Dir.    Gust                                     Temp. 
2014   (PST)    F      %     mph   deg.    mph      in.     W/m2    W/m2     mb.     F   
-----------------------------------------------------------------------------------------
 296    9:40   62.6    32    2.6   104      4.7     0.00     402     346    859.8   56.1
 296    9:50   62.9    31    3.7    95      6.8     0.00     483     350    859.6   56.2
 296   10:00   62.9    32    4.3    65      7.1     0.00     477     354    859.3   56.3
 296   10:10   63.3    31    4.3    62      6.8     0.00     479     356    859.2   56.4
 296   10:20   64.2    30    2.1    79      5.8     0.00     490     356    859.0   56.6
 296   10:30   65.8    28    2.1    84      4.9     0.00     509     363    858.8   56.8
 296   10:40   66.0    28    2.6    52      5.9     0.00     473     368    858.6   56.9
 296   10:50   66.6    27    1.3   101      5.3     0.00     454     366    858.5   57.1
 296   11:00   68.1    26    1.6    89      5.1     0.00     540     363    858.3   57.3
 296   11:10   68.5    26    1.4     2      5.4     0.00     484     360    858.2   57.5
 296   11:20   67.6    27    2.3     8      5.3     0.00     508     357    858.0   57.7
 296   11:30   67.2    27    2.6   267      5.4     0.00     231     352    857.8   57.9
 296   11:40   67.4    26    0.5   219      2.4     0.00     181     348    857.6   58.1
 296   11:50   67.1    26    2.7   250      4.8     0.00     153     348    857.6   58.4
 296   12:00   67.0    27    1.0   260      4.8     0.00     145     347    857.5   58.6
 296   12:10   67.3    27    1.6   281      3.8     0.00     262     348    857.4   58.8
 296   12:20   69.3    24    4.2   245     12.5     0.00     413     358    857.3   59.0
 296   12:30   69.6    22    5.1   218      9.0     0.00     194     359    857.2   59.2
 296   12:40   69.9    22    5.3   174     11.0     0.00     190     368    857.1   59.3
 296   12:50   70.1    21    3.1   146      6.5     0.00     242     372    856.8   59.5
 296   13:00   70.6    20    4.9   145      9.9     0.00     288     376    856.8   59.6
 296   13:10   70.7    20    6.9   248     19.2     0.00     297     384    856.7   59.7
 296   13:20   70.6    20    9.0   244     21.0     0.00     339     378    856.5   59.8
 296   13:30   70.0    21   10.1   263     16.9     0.00     317     381    856.5   59.9
 296   13:40   69.7    22    8.8   266     15.7     0.00     287     376    856.4   60.0
 296   13:50   69.4    23    9.0   264     16.3     0.00     287     370    856.4   60.1
 296   14:00   69.3    23    9.5   267     17.1     0.00     284     369    856.3   60.2
 296   14:10   68.8    24    9.5   270     17.8     0.00     268     371    856.5   60.3
 296   14:20   68.7    24    8.5   265     15.0     0.00     246     370    856.6   60.4
 296   14:30   68.1    25    9.2   263     19.6     0.00     216     372    856.6   60.5
 296   14:40   67.7    26    9.0   263     15.3     0.00     182     368    856.7   60.6
 296   14:50   67.1    26    9.9   261     19.8     0.00     186     366    856.8   60.7
 296   15:00   66.9    27    9.8   270     17.6     0.00     213     366    856.8   60.7
 296   15:10   67.1    27    9.4   275     17.4     0.00     296     368    856.8   60.8
 296   15:20   67.7    27    9.1   262     16.8     0.00     377     367    856.7   60.9
 296   15:30   67.4    27   10.5   272     17.0     0.00     354     365    856.7   60.9
 296   15:40   67.8    27    9.5   269     18.2     0.00     359     366    856.7   61.0
 296   15:50   67.9    27    9.9   278     17.4     0.00     320     367    856.7   61.1
 296   16:00   68.0    26    8.6   273     13.7     0.00     267     362    856.7   61.1
 296   16:10   67.9    26    7.7   269     13.2     0.00     205     356    856.7   61.2
 296   16:20   68.1    26    5.6   254     13.1     0.00     173     354    856.8   61.2
 296   16:30   67.3    26    6.7   262     13.8     0.00     105     350    856.7   61.3
 296   16:40   65.9    27    7.0   266     13.0     0.00      60     345    856.9   61.3
 296   16:50   65.3    26    7.3   276     15.7     0.00      24     334    856.9   61.4
 296   17:00   64.8    27    7.3   241     14.9     0.00      10     327    857.0   61.4
 296   17:10   64.3    27    7.1   252     13.4     0.00       4     324    857.0   61.4
 296   17:20   63.8    27    5.7   234     10.2     0.00       1     321    857.2   61.5
 296   17:30   63.4    27    5.9   232     11.3     0.00       0     319    857.3   61.5
 296   17:40   63.4    27    6.7   258     11.9     0.00       0     319    857.3   61.5
 296   17:50   63.3    26    3.3   229      8.6     0.00       0     324    857.3   61.5
 296   18:00   63.2    26    2.1   252      7.9     0.00       0     322    857.6   61.5
 296   18:10   61.6    28    2.6     7      4.2     0.00       0     318    857.6   61.4
 296   18:20   60.0    30    1.2   289      3.9     0.00       0     321    857.7   61.4
 296   18:30   58.5    32    2.4   279      4.2     0.00       0     316    857.8   61.4
 296   18:40   57.9    34    1.1   292      4.0     0.00       0     313    858.0   61.3
 296   18:50   57.1    35    2.0   336      4.0     0.00       0     310    858.1   61.2
 296   19:00   55.0    40    2.0   305      4.3     0.00       0     308    858.1   61.2
 296   19:10   54.1    42    2.3     1      3.7     0.00       0     307    858.3   61.1
 296   19:20   53.9    42    1.2   250      2.7     0.00       0     307    858.3   61.0
 296   19:30   53.0    44    1.4   293      3.1     0.00       0     305    858.4   60.9
 296   19:40   51.7    46    0.1   335      1.1     0.00       0     301    858.5   60.9
 296   19:50   51.0    47    1.6   297      4.1     0.00       0     298    858.6   60.8
 296   20:00   50.5    48    2.6   336      4.0     0.00       0     298    858.7   60.7
 296   20:10   49.7    50    0.2   264      1.5     0.00       0     296    858.8   60.6
 296   20:20   49.4    50    0.3   320      1.9     0.00       0     296    859.0   60.5
 296   20:30   48.8    51    1.2   292      2.9     0.00       0     298    859.2   60.4
 296   20:40   48.7    51    0.2   275      2.9     0.00       0     298    859.2   60.3
 296   20:50   48.2    52    0.5     6      2.7     0.00       0     296    859.3   60.2
 296   21:00   47.6    53    0.4   358      2.3     0.00       0     294    859.4   60.0
 296   21:10   47.5    54    0.7   303      3.0     0.00       0     294    859.5   59.9
 296   21:20   49.3    49    1.0   326      5.3     0.00       0     296    859.6   59.8
 296   21:30   49.8    49    0.6    56      2.6     0.00       0     291    859.6   59.7
 296   21:40   47.6    54    0.0     0      0.0     0.00       0     295    859.7   59.6
 296   21:50   47.3    55    0.4   204      2.3     0.00       0     294    859.7   59.5
 296   22:00   46.7    55    0.0     0      0.0     0.00       0     291    859.7   59.4
 296   22:10   45.9    58    1.0   312      3.8     0.00       0     290    859.7   59.2
 296   22:20   44.9    62    0.4   292      2.5     0.00       0     288    859.8   59.1
 296   22:30   44.6    64    0.0     0      0.0     0.00       0     286    859.9   59.0
 296   22:40   44.5    64    0.0     0      0.0     0.00       0     284    860.0   58.9
 296   22:50   44.6    63    0.5   301      2.9     0.00       0     285    860.0   58.8
 296   23:00   43.9    66    0.7   310      2.7     0.00       0     284    860.1   58.7
 296   23:10   43.2    69    1.1   306      2.5     0.00       0     282    860.2   58.6
 296   23:20   43.7    68    0.1   312      1.9     0.00       0     282    860.2   58.5
 296   23:30   43.4    68    0.0     0      0.0     0.00       0     282    860.3   58.4
 296   23:40   42.8    70    0.0     0      0.0     0.00       0     280    860.4   58.2
 296   23:50   42.6    70    0.7   306      3.3     0.00       0     278    860.4   58.2
 297    0:00   42.3    70    0.2   288      3.1     0.00       0     280    860.4   58.0
 297    0:10   41.9    71    0.0     0      0.0     0.00       0     284    860.5   57.9
 297    0:20   41.6    72    0.0     0      0.0     0.00       0     282    860.5   57.8
 297    0:30   40.9    73    0.0     0      0.0     0.00       0     282    860.5   57.7
 297    0:40   40.7    73    0.0     0      0.0     0.00       0     282    860.6   57.6
 297    0:50   40.6    74    0.0     0      0.0     0.00       0     281    860.6   57.5
 297    1:00   40.4    74    0.0     0      0.0     0.00       0     281    860.5   57.4
 297    1:10   40.3    74    0.0     0      0.0     0.00       0     278    860.5   57.3
 297    1:20   39.8    76    0.0     0      0.0     0.00       0     278    860.5   57.2
 297    1:30   39.4    77    0.0     0      0.0     0.00       0     278    860.5   57.1
 297    1:40   39.2    76    0.0     0      0.0     0.00       0     278    860.4   57.0
 297    1:50   39.3    77    0.0     0      0.0     0.00       0     278    860.5   56.9
 297    2:00   39.0    77    0.0     0      0.0     0.00       0     279    860.4   56.8
 297    2:10   39.0    77    0.2   287      3.1     0.00       0     278    860.4   56.7
 297    2:20   39.0    77    0.0     0      0.0     0.00       0     279    860.3   56.6
 297    2:30   38.7    76    0.8   251      3.8     0.00       0     277    860.3   56.5
 297    2:40   38.7    77    0.0     0      0.0     0.00       0     276    860.3   56.4
 297    2:50   38.4    78    0.0     0      0.0     0.00       0     274    860.3   56.3
 297    3:00   37.5    78    0.3   313      2.4     0.00       0     274    860.3   56.2
 297    3:10   37.5    79    0.0     0      0.0     0.00       0     274    860.3   56.1
 297    3:20   37.8    78    0.0     0      0.0     0.00       0     274    860.2   56.0
 297    3:30   37.1    79    0.0     0      0.0     0.00       0     273    860.2   56.0
 297    3:40   37.1    79    0.0     0      0.0     0.00       0     274    860.2   55.9
 297    3:50   37.1    79    0.0     0      0.0     0.00       0     270    860.2   55.8
 297    4:00   36.9    80    0.0     0      0.0     0.00       0     272    860.2   55.7
 297    4:10   36.7    80    0.0     0      0.0     0.00       0     271    860.3   55.6
 297    4:20   36.3    82    0.0     0      0.0     0.00       0     270    860.3   55.5
 297    4:30   36.5    82    0.0     0      0.0     0.00       0     270    860.3   55.4
 297    4:40   35.9    81    0.0     0      0.0     0.00       0     270    860.4   55.3
 297    4:50   35.7    83    0.0     0      0.0     0.00       0     270    860.4   55.2
 297    5:00   35.8    83    0.9    11      2.6     0.00       0     270    860.5   55.1
 297    5:10   35.9    83    0.3   285      2.9     0.00       0     271    860.5   55.1
 297    5:20   36.0    83    0.0     0      0.0     0.00       0     268    860.6   55.0
 297    5:30   35.7    83    0.0     0      0.0     0.00       0     268    860.6   54.9
 297    5:40   35.7    84    0.0     0      0.0     0.00       0     267    860.6   54.8
 297    5:50   35.4    84    0.0     0      0.0     0.00       0     267    860.6   54.7
 297    6:00   35.4    83    0.0     0      0.0     0.00       0     266    860.7   54.6
 297    6:10   34.9    85    0.3   107      3.0     0.00       1     266    860.7   54.6
 297    6:20   35.2    85    0.0     0      0.0     0.00       3     266    860.8   54.5
 297    6:30   35.1    85    0.7   333      4.0     0.00       7     268    860.9   54.4
 297    6:40   35.2    85    0.4    61      2.6     0.00      19     266    861.0   54.3
 297    6:50   37.1    81    0.2   256      2.6     0.00      44     266    861.1   54.2
 297    7:00   39.4    76    0.0     0      0.0     0.00      75     268    861.2   54.2
 297    7:10   41.4    72    0.0     0      0.0     0.00     110     271    861.2   54.1
 297    7:20   44.1    68    0.0     0      0.0     0.00     143     275    861.2   54.0
 297    7:30   46.9    63    0.0   100      2.2     0.00     170     280    861.1   53.9
 297    7:40   48.3    59    0.6   124      3.4     0.00     196     283    861.0   53.9
 297    7:50   50.6    53    0.5   193      3.0     0.00     226     288    860.9   53.8
 297    8:00   51.6    51    0.4   143      2.8     0.00     254     291    860.7   53.8
 297    8:10   53.7    47    0.1    74      1.6     0.00     282     294    860.5   53.7
 297    8:20   53.6    48    0.1   303      1.4     0.00     312     299    860.4   53.7
 297    8:30   55.0    46    0.7   146      3.1     0.00     340     304    860.2   53.7
 297    8:40   55.3    46    0.4    75      3.4     0.00     369     305    860.1   53.7
 297    8:50   56.0    45    2.0    91      5.1     0.00     394     310    860.0   53.7
 297    9:00   55.5    45    1.2   101      3.5     0.00     420     310    859.8   53.7
 297    9:10   57.4    43    1.3    70      4.1     0.00     444     313    859.6   53.8
 297    9:20   56.6    44    2.4    89      4.9     0.00     470     317    859.4   53.8
 297    9:30   57.4    43    1.5   123      4.6     0.00     491     317    859.2   53.9

Return to Reno (UNR), Nevada graphs page.


Western Regional Climate Center,wrcc@dri.edu